createdAt,value
2019-02-05T08:38:01.047Z,99.90
2019-02-05T09:25:27.378Z,1.00
2019-02-05T09:27:56.908Z,1.00
2019-02-05T09:30:31.880Z,1.00
2019-02-05T09:33:03.960Z,1.00
2019-02-05T09:35:33.589Z,1.00
2019-02-05T09:38:02.583Z,1.00
2019-02-05T09:40:35.609Z,1.00
2019-02-05T09:43:05.484Z,1.00
2019-02-05T10:15:32.432Z,1.00
2019-02-05T13:42:05.178Z,1.00
2019-02-05T13:44:34.174Z,1.00
2019-02-05T13:47:03.942Z,1.00
2019-02-05T13:49:32.874Z,43.60
2019-02-05T13:52:01.765Z,52.90
2019-02-05T13:54:30.759Z,45.60
2019-02-05T13:56:59.752Z,1.00
2019-02-05T13:59:28.641Z,1.00
2019-02-05T14:01:58.681Z,1.00
2019-02-05T14:04:28.267Z,1.00
2019-02-05T14:06:57.260Z,1.00
2019-02-05T14:09:26.151Z,1.00
2019-02-05T14:11:55.144Z,1.00
2019-02-05T14:16:52.515Z,1.00
2019-02-05T14:19:21.507Z,92.70
2019-02-05T14:21:50.398Z,95.20
2019-02-05T14:24:19.288Z,98.00
2019-02-05T14:26:48.283Z,98.10
2019-02-05T14:29:17.277Z,98.00
2019-02-05T14:31:46.268Z,97.90
2019-02-05T14:34:15.356Z,99.60
2019-02-05T14:36:44.253Z,99.90
2019-02-05T14:39:13.143Z,99.70
2019-02-05T14:41:42.039Z,99.90
2019-02-05T14:44:11.030Z,99.90
2019-02-05T14:46:40.025Z,88.90
2019-02-05T14:49:09.834Z,99.90
2019-02-05T14:51:38.728Z,99.90
2019-02-05T14:54:07.718Z,99.90
2019-02-05T14:56:36.710Z,99.90
2019-02-05T14:59:06.420Z,99.90
2019-02-05T15:01:42.770Z,99.90
2019-02-05T15:04:07.353Z,99.90
2019-02-05T15:06:36.369Z,99.90
2019-02-05T15:09:07.609Z,99.90
2019-02-05T15:11:36.607Z,99.90
2019-02-05T15:14:06.011Z,99.90
2019-02-05T15:16:34.919Z,99.90
2019-02-05T15:19:03.899Z,99.90
2019-02-05T15:21:32.784Z,94.90
2019-02-05T15:24:01.675Z,85.50
2019-02-05T15:49:12.598Z,77.00
